Time;durP1;ratioP1;P1;durP2;ratioP2;P2;SDS_P1;SDS_P2;PMS_P1;PMS_P2;Temp;Humidity;BMP_temperature;BMP_pressure;BME280_temperature;BME280_humidity;BME280_pressure;Samples;Min_cycle;Max_cycle;Signal;HPM_P1;HPM_P2
2022/02/26 00:01:27;;;;;;;28.58;7.93;;;;;;;7.76;63.18;102735.69;5015737;28;20408;-67
2022/02/26 00:03:55;;;;;;;26.92;9.05;;;;;;;7.83;62.80;102741.88;5015518;28;20061;-66
2022/02/26 00:06:22;;;;;;;20.65;6.57;;;;;;;7.89;62.30;102740.91;5017260;28;20034;-66
2022/02/26 00:08:49;;;;;;;33.20;9.40;;;;;;;7.55;63.37;102736.38;5015327;28;20054;-67
2022/02/26 00:11:16;;;;;;;27.60;9.48;;;;;;;7.34;64.42;102737.03;5016267;28;20053;-67
2022/02/26 00:13:44;;;;;;;30.48;8.82;;;;;;;7.18;64.71;102745.19;5016417;28;20069;-66
2022/02/26 00:16:11;;;;;;;33.95;8.80;;;;;;;7.22;64.44;102755.44;5016520;28;20045;-66
2022/02/26 00:18:39;;;;;;;29.02;9.65;;;;;;;7.17;64.89;102755.31;5016790;28;20046;-66
2022/02/26 00:21:08;;;;;;;29.05;9.27;;;;;;;7.45;64.59;102751.78;5024441;28;20056;-66
2022/02/26 00:23:35;;;;;;;25.45;8.60;;;;;;;7.54;64.18;102742.09;5026398;28;20073;-67
2022/02/26 00:26:03;;;;;;;28.85;9.00;;;;;;;7.54;63.92;102740.22;5016543;28;20061;-66
2022/02/26 00:28:33;;;;;;;27.63;8.57;;;;;;;7.62;63.84;102752.69;5015194;28;20054;-67
2022/02/26 00:31:01;;;;;;;24.85;9.93;;;;;;;7.03;65.54;102750.34;5014707;28;20057;-66
2022/02/26 00:33:29;;;;;;;27.05;8.55;;;;;;;7.04;65.96;102747.38;5009901;28;20052;-67
2022/02/26 00:36:01;;;;;;;31.60;8.82;;;;;;;7.31;65.01;102745.75;5014883;28;20037;-66
2022/02/26 00:38:28;;;;;;;25.58;8.15;;;;;;;7.67;64.21;102744.56;5012322;28;20058;-66
2022/02/26 00:40:55;;;;;;;24.17;8.65;;;;;;;7.68;63.70;102746.22;4993983;28;20050;-65
2022/02/26 00:43:23;;;;;;;24.73;7.57;;;;;;;7.71;63.78;102753.97;5018258;28;20049;-66
2022/02/26 00:45:50;;;;;;;28.38;7.68;;;;;;;7.47;64.03;102745.00;5016097;28;20049;-66
2022/02/26 00:49:46;;;;;;;27.40;7.40;;;;;;;7.47;64.06;102747.75;5009136;28;20061;-67
2022/02/26 00:51:05;;;;;;;20.60;5.90;;;;;;;7.21;64.58;102744.72;5011217;28;20065;-67
2022/02/26 00:53:33;;;;;;;28.88;6.25;;;;;;;7.40;64.36;102747.06;5009197;28;20061;-67
2022/02/26 00:56:01;;;;;;;22.60;5.15;;;;;;;7.70;63.11;102750.41;5001403;28;20053;-66
2022/02/26 00:58:32;;;;;;;24.52;7.20;;;;;;;7.63;63.59;102749.72;4997900;28;20050;-66
2022/02/26 01:00:59;;;;;;;22.45;6.40;;;;;;;7.76;63.29;102745.81;5007102;28;20047;-65
2022/02/26 01:03:26;;;;;;;23.20;7.47;;;;;;;7.93;62.34;102753.03;5006366;28;20054;-67
2022/02/26 01:05:54;;;;;;;29.42;8.05;;;;;;;8.01;62.43;102757.28;5014371;28;20041;-66
2022/02/26 01:08:21;;;;;;;31.90;9.25;;;;;;;7.64;63.02;102766.97;5022831;28;20050;-68
2022/02/26 01:10:49;;;;;;;28.48;9.38;;;;;;;7.24;64.86;102766.16;5008557;28;20064;-66
2022/02/26 01:13:16;;;;;;;25.30;8.75;;;;;;;7.08;65.87;102766.91;5003738;28;20047;-66
2022/02/26 01:15:43;;;;;;;29.92;9.80;;;;;;;7.25;64.96;102765.09;5021670;28;20060;-66
2022/02/26 01:18:10;;;;;;;27.33;9.13;;;;;;;6.65;66.97;102768.13;5023515;28;20438;-66
2022/02/26 01:20:38;;;;;;;32.55;9.90;;;;;;;6.92;66.86;102779.44;5006532;28;20066;-65
2022/02/26 01:23:05;;;;;;;29.20;10.07;;;;;;;6.90;67.01;102775.25;5011632;28;20058;-66
2022/02/26 01:25:32;;;;;;;24.35;9.35;;;;;;;6.72;67.74;102774.31;5009312;28;20057;-65
2022/02/26 01:27:59;;;;;;;25.38;8.95;;;;;;;6.84;67.13;102768.81;5013177;28;20056;-66
2022/02/26 01:30:28;;;;;;;26.17;8.80;;;;;;;6.99;66.31;102771.91;5014732;28;20050;-66
2022/02/26 01:32:55;;;;;;;26.45;9.10;;;;;;;6.75;67.08;102779.31;5003098;28;20409;-65
2022/02/26 01:35:23;;;;;;;31.75;8.48;;;;;;;6.79;67.60;102777.75;5008542;28;20081;-66
2022/02/26 01:37:50;;;;;;;24.83;7.97;;;;;;;7.00;66.82;102780.97;5007872;28;20409;-66
2022/02/26 01:40:17;;;;;;;28.60;8.93;;;;;;;7.07;66.63;102779.78;5005019;28;20053;-67
2022/02/26 01:42:46;;;;;;;23.38;8.68;;;;;;;6.64;67.58;102779.31;5014864;28;20049;-66
2022/02/26 01:45:16;;;;;;;32.85;8.63;;;;;;;6.56;68.09;102777.75;5011655;28;20058;-66
2022/02/26 01:47:44;;;;;;;33.03;8.48;;;;;;;6.64;67.86;102771.91;5001680;28;20046;-67
2022/02/26 01:50:14;;;;;;;32.55;8.90;;;;;;;6.53;68.32;102785.59;5014091;28;20054;-67
2022/02/26 01:52:42;;;;;;;;;;;;;;;6.51;68.41;102783.09;5014126;28;20046;-65
2022/02/26 01:55:10;;;;;;;24.60;8.43;;;;;;;6.52;68.13;102784.75;5014793;28;19933;-66
2022/02/26 01:57:38;;;;;;;27.17;8.70;;;;;;;6.60;67.99;102786.31;5014337;28;20050;-66
2022/02/26 02:00:09;;;;;;;31.65;9.75;;;;;;;6.50;68.24;102777.88;5009316;28;20420;-67
2022/02/26 02:02:36;;;;;;;37.00;11.68;;;;;;;6.58;67.92;102766.56;5009163;28;20065;-67
2022/02/26 02:05:04;;;;;;;30.27;10.82;;;;;;;6.68;67.59;102769.53;5008782;28;20042;-67
2022/02/26 02:07:32;;;;;;;33.58;12.13;;;;;;;6.88;66.74;102780.13;5009231;28;20049;-66
2022/02/26 02:10:00;;;;;;;40.55;14.38;;;;;;;6.75;67.26;102786.69;5009478;28;20049;-66
2022/02/26 02:12:27;;;;;;;34.20;11.77;;;;;;;6.63;67.43;102785.84;5018013;28;20065;-67
2022/02/26 02:14:54;;;;;;;32.10;10.95;;;;;;;6.27;69.05;102781.41;5015415;28;20038;-67
2022/02/26 02:17:23;;;;;;;35.13;8.13;;;;;;;6.38;68.69;102774.28;5013710;28;20046;-67
2022/02/26 02:19:51;;;;;;;26.40;8.38;;;;;;;6.64;68.22;102771.09;5009892;28;20504;-66
2022/02/26 02:22:19;;;;;;;22.52;8.32;;;;;;;6.64;67.78;102779.31;5009607;28;20046;-66
2022/02/26 02:24:47;;;;;;;28.52;10.00;;;;;;;6.44;67.98;102787.84;5013446;28;20046;-66
2022/02/26 02:27:18;;;;;;;22.30;8.80;;;;;;;6.34;68.38;102776.66;5011543;28;20386;-66
2022/02/26 02:29:45;;;;;;;28.55;9.05;;;;;;;6.14;69.60;102775.28;5019861;28;20409;-66
2022/02/26 02:32:13;;;;;;;25.98;7.50;;;;;;;6.19;69.74;102775.44;5000366;28;20811;-65
2022/02/26 02:34:40;;;;;;;29.85;8.23;;;;;;;6.37;68.96;102767.13;5009864;28;20054;-66
2022/02/26 02:37:10;;;;;;;23.95;7.82;;;;;;;6.60;68.81;102769.88;5012492;28;20045;-67
2022/02/26 02:39:40;;;;;;;24.90;7.05;;;;;;;6.53;68.06;102760.97;5019631;28;20053;-67
2022/02/26 02:42:08;;;;;;;18.92;6.35;;;;;;;6.52;68.18;102767.50;5020537;28;20056;-67
2022/02/26 02:44:35;;;;;;;22.65;6.43;;;;;;;6.56;67.58;102753.09;5047109;28;20057;-66
2022/02/26 02:47:04;;;;;;;34.15;7.63;;;;;;;6.66;67.82;102750.59;5011396;28;20527;-66
2022/02/26 02:49:31;;;;;;;29.98;6.72;;;;;;;6.77;66.98;102758.00;5017284;28;20057;-66
2022/02/26 02:51:59;;;;;;;23.70;6.63;;;;;;;6.79;66.80;102758.59;5011903;28;20057;-66
2022/02/26 02:54:26;;;;;;;25.00;7.25;;;;;;;6.92;66.49;102757.53;5039479;28;20060;-66
2022/02/26 02:56:54;;;;;;;22.20;6.50;;;;;;;6.90;66.45;102756.09;5015689;28;20053;-65
2022/02/26 02:59:24;;;;;;;22.42;6.78;;;;;;;6.68;66.75;102753.09;5010935;28;20516;-65
2022/02/26 03:01:52;;;;;;;26.15;7.40;;;;;;;6.53;67.13;102753.59;5010462;28;20046;-66
2022/02/26 03:04:19;;;;;;;23.27;6.90;;;;;;;6.54;67.77;102744.28;5011904;28;20162;-66
2022/02/26 03:06:47;;;;;;;24.83;7.00;;;;;;;6.57;67.91;102748.47;5012481;28;20049;-66
2022/02/26 03:09:14;;;;;;;25.02;7.93;;;;;;;6.39;68.10;102751.31;5012493;28;20054;-66
2022/02/26 03:11:41;;;;;;;35.17;7.93;;;;;;;6.53;67.87;102752.75;5010845;28;20053;-66
2022/02/26 03:14:09;;;;;;;27.65;9.18;;;;;;;6.55;67.53;102745.13;5023317;28;20076;-66
2022/02/26 03:16:37;;;;;;;24.58;7.60;;;;;;;6.46;67.69;102754.75;5020138;28;20054;-67
2022/02/26 03:19:05;;;;;;;25.80;7.57;;;;;;;5.90;69.94;102760.72;5019547;28;20049;-66
2022/02/26 03:21:33;;;;;;;28.00;7.97;;;;;;;6.01;69.82;102753.59;5017627;28;20053;-65
2022/02/26 03:24:00;;;;;;;21.55;8.27;;;;;;;5.82;70.26;102755.53;5018795;28;20054;-65
2022/02/26 03:26:27;;;;;;;24.83;8.18;;;;;;;5.73;70.65;102756.94;5012067;28;20060;-65
2022/02/26 03:28:55;;;;;;;30.08;8.40;;;;;;;5.97;70.43;102755.13;5010631;28;20054;-65
2022/02/26 03:31:22;;;;;;;34.65;8.50;;;;;;;5.98;69.96;102754.09;5008307;28;20065;-65
2022/02/26 03:33:50;;;;;;;23.15;7.00;;;;;;;6.25;69.30;102750.69;5007078;28;20050;-65
2022/02/26 03:36:17;;;;;;;33.60;7.85;;;;;;;6.45;68.45;102747.63;5010610;28;20069;-65
2022/02/26 03:38:44;;;;;;;22.80;7.82;;;;;;;6.35;68.56;102756.41;5011810;28;20054;-66
2022/02/26 03:41:13;;;;;;;20.60;7.50;;;;;;;6.34;68.20;102749.28;5007159;28;20049;-66
2022/02/26 03:43:42;;;;;;;23.70;8.50;;;;;;;6.57;67.33;102748.47;5004137;28;20050;-68
2022/02/26 03:46:09;;;;;;;19.42;7.47;;;;;;;6.57;67.61;102746.53;5001889;28;20058;-65
2022/02/26 03:48:39;;;;;;;26.85;7.28;;;;;;;6.47;68.11;102742.72;5008118;28;20053;-65
2022/02/26 03:51:10;;;;;;;27.50;7.30;;;;;;;6.41;67.93;102744.53;5000358;28;20049;-66
2022/02/26 03:53:40;;;;;;;28.13;7.72;;;;;;;6.41;67.88;102744.53;5014199;28;20053;-64
2022/02/26 03:56:08;;;;;;;29.00;7.78;;;;;;;6.29;68.30;102748.31;5016573;28;20496;-65
2022/02/26 03:58:35;;;;;;;23.88;7.22;;;;;;;6.44;68.18;102744.06;5016163;28;20050;-65
2022/02/26 04:01:03;;;;;;;19.20;7.57;;;;;;;6.42;67.99;102756.28;5015478;28;20048;-65
2022/02/26 04:03:30;;;;;;;21.65;6.97;;;;;;;6.41;67.74;102760.13;5013491;28;20068;-64
2022/02/26 04:05:57;;;;;;;28.00;7.68;;;;;;;6.07;68.54;102750.75;5002509;28;20050;-65
2022/02/26 04:08:25;;;;;;;21.75;7.00;;;;;;;6.11;68.90;102753.88;5007233;28;20091;-64
2022/02/26 04:10:52;;;;;;;28.13;8.52;;;;;;;6.28;68.74;102757.56;5016640;28;20050;-64
2022/02/26 04:13:19;;;;;;;23.27;7.35;;;;;;;6.42;67.85;102762.63;5014425;28;20057;-64
2022/02/26 04:15:47;;;;;;;22.75;7.15;;;;;;;6.47;67.75;102754.53;5003955;28;20054;-65
2022/02/26 04:18:14;;;;;;;22.40;8.50;;;;;;;6.52;67.40;102768.31;5003635;28;20068;-65
2022/02/26 04:20:42;;;;;;;27.00;7.40;;;;;;;6.42;67.90;102775.47;5009710;28;20041;-65
2022/02/26 04:23:09;;;;;;;29.80;7.70;;;;;;;6.49;67.44;102782.50;5005737;28;20059;-66
2022/02/26 04:25:37;;;;;;;18.98;6.90;;;;;;;5.95;68.71;102777.25;5005857;28;20053;-65
2022/02/26 04:28:04;;;;;;;23.58;7.47;;;;;;;5.88;69.34;102776.50;5002272;28;20046;-65
2022/02/26 04:30:33;;;;;;;25.67;6.85;;;;;;;6.18;69.18;102781.94;5005346;28;20037;-65
2022/02/26 04:33:01;;;;;;;26.13;7.13;;;;;;;6.10;68.97;102785.03;5016898;28;20041;-66
2022/02/26 04:35:28;;;;;;;24.25;7.80;;;;;;;6.32;68.09;102778.78;5005800;28;20047;-66
2022/02/26 04:37:55;;;;;;;28.85;8.43;;;;;;;6.19;68.77;102773.50;5002912;28;20038;-65
2022/02/26 04:40:23;;;;;;;24.23;7.00;;;;;;;6.30;67.89;102771.88;5014975;28;20049;-65
2022/02/26 04:42:53;;;;;;;23.20;7.65;;;;;;;6.32;67.80;102777.94;5017323;28;20053;-65
2022/02/26 04:45:20;;;;;;;21.52;6.93;;;;;;;6.26;68.10;102778.91;5015164;28;20042;-67
2022/02/26 04:47:48;;;;;;;21.48;7.55;;;;;;;5.90;69.02;102779.00;5004297;28;20053;-65
2022/02/26 04:50:15;;;;;;;25.13;6.95;;;;;;;5.48;70.47;102776.19;5011773;28;20076;-65
2022/02/26 04:52:44;;;;;;;33.00;7.07;;;;;;;5.62;70.58;102771.38;5005208;28;20058;-66
2022/02/26 04:55:12;;;;;;;22.55;6.85;;;;;;;5.77;70.12;102774.53;5011675;28;20057;-67
2022/02/26 04:57:39;;;;;;;31.00;6.75;;;;;;;5.82;69.76;102779.31;5011434;28;20049;-65
2022/02/26 05:00:09;;;;;;;15.40;6.65;;;;;;;5.87;69.81;102779.47;5009727;28;20053;-66
2022/02/26 05:02:37;;;;;;;27.08;6.75;;;;;;;6.06;69.22;102773.72;5015674;28;20045;-66
2022/02/26 05:05:05;;;;;;;23.20;6.22;;;;;;;6.17;68.22;102763.88;5004331;28;20088;-67
2022/02/26 05:07:33;;;;;;;21.17;6.80;;;;;;;6.24;67.71;102767.34;4988345;28;20049;-65
2022/02/26 05:10:01;;;;;;;23.38;6.35;;;;;;;6.16;67.98;102767.66;5011595;28;20053;-66
2022/02/26 05:12:28;;;;;;;29.25;6.63;;;;;;;6.24;67.80;102765.44;5001630;28;20049;-67
2022/02/26 05:14:56;;;;;;;20.33;6.00;;;;;;;6.06;68.40;102771.00;5005637;28;20505;-65
2022/02/26 05:17:23;;;;;;;25.38;6.32;;;;;;;6.14;67.88;102767.91;5002651;28;20050;-66
2022/02/26 05:19:50;;;;;;;23.77;5.53;;;;;;;6.09;67.70;102767.78;5006437;28;20046;-66
2022/02/26 05:22:17;;;;;;;27.67;6.13;;;;;;;5.81;68.73;102772.16;5009092;28;20041;-65
2022/02/26 05:24:45;;;;;;;22.70;5.70;;;;;;;5.83;68.82;102772.78;5009828;28;20552;-66
2022/02/26 05:27:12;;;;;;;24.73;5.90;;;;;;;5.60;69.60;102774.34;5006574;28;20061;-64
2022/02/26 05:29:39;;;;;;;22.23;6.10;;;;;;;5.91;68.75;102770.56;5001309;28;20066;-66
2022/02/26 05:32:07;;;;;;;23.88;5.25;;;;;;;5.92;68.43;102769.50;5003315;28;20045;-66
2022/02/26 05:34:35;;;;;;;25.42;5.50;;;;;;;5.96;68.18;102772.63;5012134;28;20049;-66
2022/02/26 05:37:02;;;;;;;16.90;4.93;;;;;;;5.83;68.11;102770.91;5008608;28;20061;-66
2022/02/26 05:39:29;;;;;;;18.33;5.68;;;;;;;5.96;68.61;102769.88;5032251;28;20148;-66
2022/02/26 05:41:57;;;;;;;19.92;5.53;;;;;;;6.08;67.69;102770.75;5015194;28;20386;-66
2022/02/26 05:44:24;;;;;;;20.85;5.80;;;;;;;6.07;67.93;102771.81;5012223;28;20453;-66
2022/02/26 05:46:52;;;;;;;17.80;5.70;;;;;;;5.85;68.38;102771.50;5005089;28;20687;-66
2022/02/26 05:49:20;;;;;;;28.50;6.05;;;;;;;5.89;68.26;102769.16;5023230;28;20058;-65
2022/02/26 05:51:48;;;;;;;28.85;5.90;;;;;;;6.08;68.19;102776.22;5020638;28;20050;-65
2022/02/26 05:54:15;;;;;;;17.02;5.78;;;;;;;5.98;67.58;102774.03;5010020;28;20050;-66
2022/02/26 05:56:42;;;;;;;22.92;6.25;;;;;;;6.04;67.68;102773.13;5019197;28;20073;-66
2022/02/26 05:59:10;;;;;;;21.85;6.20;;;;;;;5.85;68.19;102767.94;5013603;28;20046;-65
2022/02/26 06:01:37;;;;;;;22.05;5.60;;;;;;;5.75;68.74;102773.94;5010212;28;20046;-65
2022/02/26 06:04:04;;;;;;;19.05;6.25;;;;;;;5.73;68.46;102770.59;4993854;28;20049;-65
2022/02/26 06:06:32;;;;;;;19.40;5.47;;;;;;;5.59;68.28;102769.09;5036969;28;20050;-64
2022/02/26 06:08:59;;;;;;;21.35;5.40;;;;;;;5.66;68.44;102767.97;4991274;28;20508;-64
2022/02/26 06:11:26;;;;;;;20.63;5.70;;;;;;;5.80;68.11;102778.69;5005926;28;20445;-65
2022/02/26 06:13:54;;;;;;;26.77;6.32;;;;;;;5.79;68.27;102774.31;5004756;28;20076;-65
2022/02/26 06:16:21;;;;;;;22.15;5.85;;;;;;;5.79;68.33;102777.06;5002292;28;20054;-65
2022/02/26 06:18:48;;;;;;;19.20;5.50;;;;;;;6.02;67.47;102779.88;5010482;28;20050;-66
2022/02/26 06:21:16;;;;;;;23.38;6.15;;;;;;;6.01;67.24;102787.28;5019743;28;20064;-67
2022/02/26 06:23:45;;;;;;;18.77;5.70;;;;;;;5.83;67.75;102789.19;5010310;28;20069;-66
2022/02/26 06:26:12;;;;;;;16.80;5.20;;;;;;;5.81;68.15;102783.94;5000910;28;20533;-66
2022/02/26 06:28:40;;;;;;;22.77;5.85;;;;;;;6.10;67.36;102790.50;5008661;28;20049;-64
2022/02/26 06:31:07;;;;;;;19.48;5.88;;;;;;;5.85;67.36;102782.44;5018104;28;20515;-66
2022/02/26 06:33:34;;;;;;;25.83;6.28;;;;;;;6.03;66.99;102784.31;5012437;28;20516;-66
2022/02/26 06:36:02;;;;;;;21.80;6.13;;;;;;;5.80;67.43;102785.03;5030233;28;20072;-66
2022/02/26 06:38:29;;;;;;;21.15;5.78;;;;;;;5.88;67.80;102786.59;5007856;28;20550;-66
2022/02/26 06:40:56;;;;;;;17.27;5.95;;;;;;;5.65;68.01;102784.56;5008447;28;20058;-66
2022/02/26 06:43:24;;;;;;;20.60;5.75;;;;;;;5.48;68.66;102786.28;4999020;28;20047;-66
2022/02/26 06:45:51;;;;;;;21.42;5.78;;;;;;;5.32;69.54;102793.19;5004878;28;20057;-65
2022/02/26 06:48:18;;;;;;;22.13;5.88;;;;;;;5.78;68.59;102795.34;5005075;28;20050;-65
2022/02/26 06:50:46;;;;;;;20.02;6.60;;;;;;;5.44;69.12;102788.63;5007163;28;20061;-65
2022/02/26 06:53:13;;;;;;;21.35;6.72;;;;;;;5.58;69.15;102787.41;5004642;28;20060;-66
2022/02/26 06:55:40;;;;;;;20.40;5.40;;;;;;;5.58;68.95;102795.59;5009171;28;20050;-66
2022/02/26 06:58:08;;;;;;;19.00;5.80;;;;;;;5.87;68.17;102802.19;5000083;28;20165;-65
2022/02/26 07:00:35;;;;;;;27.33;6.47;;;;;;;5.72;68.26;102788.91;5000588;28;20057;-65
2022/02/26 07:03:02;;;;;;;18.65;5.68;;;;;;;5.94;67.67;102793.91;5009565;28;20053;-65
2022/02/26 07:05:30;;;;;;;28.95;5.78;;;;;;;5.65;68.03;102790.88;5006335;28;20047;-64
2022/02/26 07:07:57;;;;;;;17.00;5.35;;;;;;;5.50;68.80;102795.09;5039729;28;20054;-65
2022/02/26 07:10:25;;;;;;;29.17;6.90;;;;;;;5.23;69.99;102796.47;5007001;28;20042;-65
2022/02/26 07:12:52;;;;;;;21.33;5.60;;;;;;;5.33;69.70;102794.03;5005246;28;20053;-65
2022/02/26 07:15:19;;;;;;;22.67;6.03;;;;;;;5.32;69.84;102797.81;5010264;28;20046;-66
2022/02/26 07:17:47;;;;;;;23.63;6.95;;;;;;;5.51;69.50;102796.75;5012258;28;20504;-66
2022/02/26 07:20:14;;;;;;;28.75;7.43;;;;;;;5.42;69.63;102798.13;5016270;28;20042;-67
2022/02/26 07:22:42;;;;;;;21.50;6.03;;;;;;;5.41;69.62;102804.66;5017213;28;20555;-66
2022/02/26 07:25:09;;;;;;;23.33;6.85;;;;;;;5.57;68.92;102802.16;4997504;28;20053;-66
2022/02/26 07:27:37;;;;;;;26.05;7.40;;;;;;;5.63;68.70;102794.94;5013888;28;20054;-66
2022/02/26 07:30:05;;;;;;;19.75;6.97;;;;;;;5.57;69.17;102799.41;5013287;28;20498;-66
2022/02/26 07:32:33;;;;;;;22.65;7.50;;;;;;;5.41;69.71;102797.28;5009410;28;20046;-66
2022/02/26 07:35:01;;;;;;;19.35;7.32;;;;;;;5.53;69.42;102802.81;5012374;28;20057;-65
2022/02/26 07:37:28;;;;;;;28.95;9.68;;;;;;;5.72;68.85;102799.00;5005634;28;20089;-66
2022/02/26 07:39:55;;;;;;;28.67;8.55;;;;;;;5.77;68.53;102790.94;5005726;28;20070;-66
2022/02/26 07:42:23;;;;;;;24.45;6.47;;;;;;;5.73;67.89;102797.94;5004700;28;20046;-65
2022/02/26 07:44:50;;;;;;;26.48;6.70;;;;;;;5.69;68.34;102808.50;5002092;28;20497;-66
2022/02/26 07:47:17;;;;;;;16.27;6.10;;;;;;;5.70;67.67;102801.16;5004003;28;20054;-65
2022/02/26 07:49:46;;;;;;;23.58;6.35;;;;;;;5.67;67.58;102804.31;5015155;28;20054;-65
2022/02/26 07:52:30;;;;;;;24.67;6.57;;;;;;;5.42;69.23;102806.34;5004808;28;20429;-66
2022/02/26 07:54:58;;;;;;;21.38;6.15;;;;;;;5.50;68.83;102801.41;5022458;28;20046;-66
2022/02/26 07:57:26;;;;;;;16.98;5.78;;;;;;;5.52;68.62;102804.72;4993748;28;20057;-66
2022/02/26 07:59:54;;;;;;;21.48;5.78;;;;;;;5.44;68.91;102799.56;5012118;28;20409;-66
2022/02/26 08:02:21;;;;;;;25.27;6.10;;;;;;;5.77;68.00;102807.34;5012063;28;20532;-66
2022/02/26 08:04:51;;;;;;;14.18;5.68;;;;;;;5.80;67.05;102812.38;5010019;28;20402;-67
2022/02/26 08:07:19;;;;;;;17.42;5.57;;;;;;;5.72;67.69;102812.66;4988394;28;20057;-68
2022/02/26 08:09:46;;;;;;;14.95;4.97;;;;;;;5.79;67.76;102805.22;5006148;28;20057;-66
2022/02/26 08:12:14;;;;;;;28.75;7.05;;;;;;;5.72;67.63;102807.19;5009137;28;20057;-66
2022/02/26 08:14:41;;;;;;;21.17;5.35;;;;;;;5.79;67.39;102821.63;5009593;28;20038;-67
2022/02/26 08:17:09;;;;;;;22.45;5.53;;;;;;;5.71;67.26;102811.84;5006225;28;20385;-66
2022/02/26 08:19:38;;;;;;;20.40;6.00;;;;;;;5.43;68.72;102810.72;5012818;28;20049;-67
2022/02/26 08:22:06;;;;;;;28.47;5.83;;;;;;;5.81;67.71;102811.28;5014081;28;20045;-67
2022/02/26 08:24:35;;;;;;;26.73;5.88;;;;;;;6.08;66.19;102809.91;4999337;28;20055;-67
2022/02/26 08:27:04;;;;;;;23.40;6.30;;;;;;;5.87;66.88;102812.31;5013429;28;20037;-67
2022/02/26 08:29:31;;;;;;;22.70;6.03;;;;;;;5.81;67.06;102815.91;5010131;28;20417;-67
2022/02/26 08:31:59;;;;;;;17.42;5.65;;;;;;;5.65;67.88;102806.44;5008373;28;20050;-67
2022/02/26 08:34:27;;;;;;;18.13;5.60;;;;;;;5.97;66.99;102805.22;5000009;28;20064;-67
2022/02/26 08:36:54;;;;;;;21.88;5.45;;;;;;;5.82;66.83;102810.25;5014471;28;20061;-67
2022/02/26 08:39:24;;;;;;;19.88;5.13;;;;;;;5.92;66.69;102821.47;5016774;28;20077;-67
2022/02/26 08:41:52;;;;;;;18.42;6.15;;;;;;;5.70;67.35;102812.91;5014379;28;20048;-67
2022/02/26 08:44:19;;;;;;;19.48;5.28;;;;;;;5.92;66.22;102804.22;4989272;28;20060;-64
2022/02/26 08:46:47;;;;;;;21.25;4.72;;;;;;;6.08;66.23;102800.84;5015539;28;20050;-65
2022/02/26 08:49:14;;;;;;;26.17;5.30;;;;;;;6.17;65.74;102808.47;5010927;28;20062;-65
2022/02/26 08:51:41;;;;;;;21.33;5.50;;;;;;;6.37;65.32;102806.28;5013314;28;20053;-65
2022/02/26 08:54:09;;;;;;;17.98;5.40;;;;;;;6.44;65.01;102803.44;5007373;28;20054;-64
2022/02/26 08:56:36;;;;;;;19.65;5.50;;;;;;;6.42;64.93;102803.66;5004996;28;20046;-65
2022/02/26 08:59:06;;;;;;;14.88;5.60;;;;;;;6.53;64.63;102805.59;5010368;28;20057;-65
2022/02/26 09:01:33;;;;;;;25.65;5.90;;;;;;;6.65;64.61;102797.41;5003121;28;20050;-67
2022/02/26 09:04:04;;;;;;;17.27;5.80;;;;;;;6.64;64.07;102802.03;5004108;28;20073;-66
2022/02/26 09:06:32;;;;;;;18.40;5.20;;;;;;;6.70;63.38;102809.31;5009668;28;20046;-67
2022/02/26 09:09:00;;;;;;;23.20;6.07;;;;;;;6.60;63.80;102803.59;5006523;28;20053;-65
2022/02/26 09:11:27;;;;;;;19.50;6.47;;;;;;;6.81;63.05;102794.78;5007483;28;20064;-66
2022/02/26 09:13:55;;;;;;;23.75;5.78;;;;;;;6.80;63.52;102798.59;5007176;28;20046;-66
2022/02/26 09:16:22;;;;;;;18.33;5.10;;;;;;;6.93;62.72;102797.53;4997525;28;20417;-65
2022/02/26 09:18:50;;;;;;;20.88;5.88;;;;;;;6.92;63.08;102804.09;5010765;28;20041;-67
2022/02/26 09:21:17;;;;;;;20.45;5.93;;;;;;;6.76;63.21;102800.13;5014863;28;20049;-65
2022/02/26 09:23:45;;;;;;;18.85;4.50;;;;;;;6.52;63.44;102798.44;5013106;28;20072;-64
2022/02/26 09:26:13;;;;;;;28.35;4.78;;;;;;;6.45;63.68;102792.25;5013776;28;20053;-65
2022/02/26 09:28:42;;;;;;;15.73;5.30;;;;;;;6.50;63.76;102797.84;5010728;28;20041;-67
2022/02/26 09:31:10;;;;;;;24.40;4.65;;;;;;;6.75;63.27;102787.53;5011996;28;20050;-67
2022/02/26 09:33:38;;;;;;;25.27;4.75;;;;;;;7.02;62.02;102789.78;5017369;28;20052;-67
2022/02/26 09:36:07;;;;;;;16.75;4.90;;;;;;;7.06;61.69;102783.56;5031874;28;20060;-67
2022/02/26 09:38:36;;;;;;;18.52;5.20;;;;;;;7.13;60.80;102784.28;5013877;28;20046;-66
2022/02/26 09:41:04;;;;;;;16.48;4.82;;;;;;;7.04;60.45;102787.63;5004582;28;20512;-68
2022/02/26 09:43:32;;;;;;;18.08;4.50;;;;;;;7.00;60.63;102783.69;5013940;28;20141;-66
2022/02/26 09:46:04;;;;;;;21.40;5.85;;;;;;;7.07;60.90;102782.50;5011625;28;20053;-67
2022/02/26 09:48:32;;;;;;;13.93;4.10;;;;;;;6.92;61.30;102778.59;5015534;28;20046;-66
2022/02/26 09:51:00;;;;;;;23.80;5.72;;;;;;;6.98;61.23;102772.97;5029121;28;20049;-67
2022/02/26 09:53:27;;;;;;;21.05;4.93;;;;;;;7.17;60.74;102768.19;5013329;28;20054;-66
2022/02/26 09:55:56;;;;;;;24.25;5.05;;;;;;;7.57;60.57;102769.03;5010216;28;20050;-65
2022/02/26 09:58:23;;;;;;;19.65;5.50;;;;;;;7.77;60.46;102774.94;5013541;28;20057;-66
2022/02/26 10:00:51;;;;;;;21.08;5.07;;;;;;;7.75;60.65;102766.13;5014318;28;20058;-65
2022/02/26 10:03:26;;;;;;;19.92;5.10;;;;;;;7.73;59.99;102765.53;5013430;28;20050;-65
2022/02/26 10:06:13;;;;;;;17.63;4.78;;;;;;;7.76;58.63;102773.25;5012962;28;20053;-66
2022/02/26 10:08:49;;;;;;;16.58;4.32;;;;;;;7.90;59.28;102782.84;5014024;28;20053;-66
2022/02/26 10:11:28;;;;;;;19.52;4.60;;;;;;;8.00;58.26;102770.16;5017281;28;20064;-66
2022/02/26 10:14:15;;;;;;;20.43;4.77;;;;;;;8.10;57.41;102779.66;5010182;28;20058;-65
2022/02/26 10:16:48;;;;;;;14.82;3.55;;;;;;;7.99;57.75;102767.66;4995590;28;20077;-64
2022/02/26 10:19:23;;;;;;;15.65;3.13;;;;;;;8.28;56.29;102763.81;5007436;28;20049;-64
2022/02/26 10:21:52;;;;;;;10.55;3.50;;;;;;;8.64;56.18;102768.84;4991162;28;20046;-64
2022/02/26 10:24:19;;;;;;;19.00;4.20;;;;;;;8.78;55.14;102755.59;5009719;28;20049;-63
2022/02/26 10:26:52;;;;;;;15.60;4.20;;;;;;;9.02;53.29;102754.28;5014378;28;20049;-63
2022/02/26 10:29:22;;;;;;;16.55;4.22;;;;;;;9.05;53.41;102757.38;5013423;28;20053;-64
2022/02/26 10:31:50;;;;;;;16.25;4.18;;;;;;;8.91;53.68;102753.31;5008554;28;20054;-64
2022/02/26 10:34:25;;;;;;;14.75;3.97;;;;;;;8.87;52.36;102763.13;5013188;28;20045;-63
2022/02/26 10:37:08;;;;;;;17.90;4.10;;;;;;;8.74;51.95;102755.25;5015851;28;20058;-64
2022/02/26 10:39:46;;;;;;;13.50;3.42;;;;;;;8.60;51.71;102753.09;5011805;28;20058;-65
2022/02/26 10:42:20;;;;;;;13.23;3.63;;;;;;;8.73;51.66;102737.13;5015982;28;20053;-66
2022/02/26 10:45:09;;;;;;;15.77;3.78;;;;;;;9.15;52.65;102744.84;5013087;28;20062;-65
2022/02/26 10:47:38;;;;;;;13.48;3.63;;;;;;;9.21;49.78;102739.16;5020576;28;20089;-65
2022/02/26 10:50:18;;;;;;;12.10;3.78;;;;;;;9.21;49.74;102738.31;5015696;28;20046;-64
2022/02/26 10:52:57;;;;;;;12.00;3.40;;;;;;;9.28;49.16;102736.22;5016559;28;20060;-66
2022/02/26 10:55:48;;;;;;;13.18;3.90;;;;;;;9.30;49.83;102734.88;5020746;28;20045;-66
2022/02/26 10:58:23;;;;;;;10.95;2.85;;;;;;;9.26;48.27;102730.97;5017256;28;20045;-68
2022/02/26 11:00:52;;;;;;;17.30;3.40;;;;;;;9.14;47.96;102733.00;5014536;28;20050;-68
2022/02/26 11:03:21;;;;;;;13.05;3.13;;;;;;;9.37;48.14;102727.25;5012370;28;20046;-66
2022/02/26 11:05:49;;;;;;;15.23;4.00;;;;;;;9.39;47.60;102725.09;5016967;28;20065;-64
2022/02/26 11:08:17;;;;;;;13.48;3.28;;;;;;;9.43;48.23;102722.66;5013167;28;20038;-65
2022/02/26 11:10:45;;;;;;;17.13;3.88;;;;;;;9.26;47.66;102708.97;4991210;28;20042;-66
2022/02/26 11:13:13;;;;;;;14.30;3.53;;;;;;;9.30;46.56;102712.88;5017148;28;20049;-66
2022/02/26 11:15:42;;;;;;;14.57;3.22;;;;;;;9.45;47.83;102715.00;5000850;28;20050;-65
2022/02/26 11:18:12;;;;;;;14.13;3.67;;;;;;;9.42;47.37;102715.47;5017231;28;20045;-65
2022/02/26 11:20:39;;;;;;;14.13;3.38;;;;;;;9.50;47.77;102706.78;5000750;28;20053;-66
2022/02/26 11:23:07;;;;;;;14.32;3.28;;;;;;;9.73;45.96;102701.81;5015858;28;20050;-67
2022/02/26 11:25:36;;;;;;;19.42;3.97;;;;;;;9.93;46.08;102712.19;4981940;28;20057;-67
2022/02/26 11:28:04;;;;;;;14.38;3.50;;;;;;;9.99;45.96;102709.22;5016360;28;20060;-65
2022/02/26 11:30:38;;;;;;;12.65;3.53;;;;;;;9.89;45.90;102703.63;5017387;28;20052;-65